sensor_id;sensor_type;location;lat;lon;timestamp;P1;durP1;ratioP1;P2;durP2;ratioP2
39524;SDS011;25203;50.754;6.978;2023-06-01T00:01:26;9.07;;;4.32;;
39524;SDS011;25203;50.754;6.978;2023-06-01T00:03:27;8.60;;;4.20;;
39524;SDS011;25203;50.754;6.978;2023-06-01T00:05:29;6.97;;;4.30;;
39524;SDS011;25203;50.754;6.978;2023-06-01T00:07:30;8.27;;;4.60;;
39524;SDS011;25203;50.754;6.978;2023-06-01T00:09:32;13.00;;;5.22;;
39524;SDS011;25203;50.754;6.978;2023-06-01T00:11:33;11.35;;;5.13;;
39524;SDS011;25203;50.754;6.978;2023-06-01T00:13:34;9.90;;;4.28;;
39524;SDS011;25203;50.754;6.978;2023-06-01T00:15:35;7.50;;;4.07;;
39524;SDS011;25203;50.754;6.978;2023-06-01T00:17:36;9.93;;;3.70;;
39524;SDS011;25203;50.754;6.978;2023-06-01T00:19:36;9.02;;;3.72;;
39524;SDS011;25203;50.754;6.978;2023-06-01T00:21:38;9.05;;;4.22;;
39524;SDS011;25203;50.754;6.978;2023-06-01T00:23:39;9.18;;;4.25;;
39524;SDS011;25203;50.754;6.978;2023-06-01T00:25:40;6.13;;;3.90;;
39524;SDS011;25203;50.754;6.978;2023-06-01T00:27:41;6.05;;;4.05;;
39524;SDS011;25203;50.754;6.978;2023-06-01T00:29:42;9.23;;;3.95;;
39524;SDS011;25203;50.754;6.978;2023-06-01T00:31:42;6.68;;;3.33;;
39524;SDS011;25203;50.754;6.978;2023-06-01T00:33:44;7.60;;;3.53;;
39524;SDS011;25203;50.754;6.978;2023-06-01T00:35:45;9.45;;;4.10;;
39524;SDS011;25203;50.754;6.978;2023-06-01T00:37:46;5.68;;;3.80;;
39524;SDS011;25203;50.754;6.978;2023-06-01T00:39:47;7.65;;;4.22;;
39524;SDS011;25203;50.754;6.978;2023-06-01T00:41:47;6.88;;;4.57;;
39524;SDS011;25203;50.754;6.978;2023-06-01T00:43:48;13.80;;;5.07;;
39524;SDS011;25203;50.754;6.978;2023-06-01T00:45:48;7.78;;;4.28;;
39524;SDS011;25203;50.754;6.978;2023-06-01T00:47:49;6.63;;;4.20;;
39524;SDS011;25203;50.754;6.978;2023-06-01T00:49:50;8.18;;;4.13;;
39524;SDS011;25203;50.754;6.978;2023-06-01T00:51:50;9.90;;;4.43;;
39524;SDS011;25203;50.754;6.978;2023-06-01T00:53:52;9.10;;;4.40;;
39524;SDS011;25203;50.754;6.978;2023-06-01T00:55:52;12.00;;;4.13;;
39524;SDS011;25203;50.754;6.978;2023-06-01T00:57:54;5.68;;;3.38;;
39524;SDS011;25203;50.754;6.978;2023-06-01T00:59:55;7.60;;;4.00;;
39524;SDS011;25203;50.754;6.978;2023-06-01T01:01:57;7.32;;;4.57;;
39524;SDS011;25203;50.754;6.978;2023-06-01T01:03:57;7.63;;;3.75;;
39524;SDS011;25203;50.754;6.978;2023-06-01T01:06:04;8.23;;;4.32;;
39524;SDS011;25203;50.754;6.978;2023-06-01T01:08:19;8.73;;;3.80;;
39524;SDS011;25203;50.754;6.978;2023-06-01T01:10:38;5.35;;;4.00;;
39524;SDS011;25203;50.754;6.978;2023-06-01T01:12:45;6.25;;;3.40;;
39524;SDS011;25203;50.754;6.978;2023-06-01T01:15:10;6.55;;;4.20;;
39524;SDS011;25203;50.754;6.978;2023-06-01T01:17:15;6.30;;;3.80;;
39524;SDS011;25203;50.754;6.978;2023-06-01T01:19:58;6.05;;;4.10;;
39524;SDS011;25203;50.754;6.978;2023-06-01T01:22:22;8.27;;;4.18;;
39524;SDS011;25203;50.754;6.978;2023-06-01T01:25:05;5.00;;;4.50;;
39524;SDS011;25203;50.754;6.978;2023-06-01T01:29:25;8.07;;;4.30;;
39524;SDS011;25203;50.754;6.978;2023-06-01T01:31:28;7.28;;;4.10;;
39524;SDS011;25203;50.754;6.978;2023-06-01T01:33:31;10.18;;;4.60;;
39524;SDS011;25203;50.754;6.978;2023-06-01T01:35:33;6.28;;;4.00;;
39524;SDS011;25203;50.754;6.978;2023-06-01T01:37:34;6.20;;;4.43;;
39524;SDS011;25203;50.754;6.978;2023-06-01T01:39:35;8.10;;;4.15;;
39524;SDS011;25203;50.754;6.978;2023-06-01T01:41:35;6.28;;;3.95;;
39524;SDS011;25203;50.754;6.978;2023-06-01T01:43:37;6.18;;;3.70;;
39524;SDS011;25203;50.754;6.978;2023-06-01T01:45:38;7.00;;;4.35;;
39524;SDS011;25203;50.754;6.978;2023-06-01T01:47:58;10.82;;;4.50;;
39524;SDS011;25203;50.754;6.978;2023-06-01T01:50:28;6.75;;;4.05;;
39524;SDS011;25203;50.754;6.978;2023-06-01T01:52:42;8.18;;;4.53;;
39524;SDS011;25203;50.754;6.978;2023-06-01T01:54:45;10.60;;;4.22;;
39524;SDS011;25203;50.754;6.978;2023-06-01T01:56:47;6.70;;;3.90;;
39524;SDS011;25203;50.754;6.978;2023-06-01T01:58:50;6.78;;;5.30;;
39524;SDS011;25203;50.754;6.978;2023-06-01T02:00:50;8.93;;;5.93;;
39524;SDS011;25203;50.754;6.978;2023-06-01T02:02:52;8.80;;;5.47;;
39524;SDS011;25203;50.754;6.978;2023-06-01T02:04:53;7.57;;;4.53;;
39524;SDS011;25203;50.754;6.978;2023-06-01T02:06:53;6.85;;;4.03;;
39524;SDS011;25203;50.754;6.978;2023-06-01T02:08:54;11.40;;;6.25;;
39524;SDS011;25203;50.754;6.978;2023-06-01T02:10:55;10.07;;;5.03;;
39524;SDS011;25203;50.754;6.978;2023-06-01T02:12:56;8.90;;;4.60;;
39524;SDS011;25203;50.754;6.978;2023-06-01T02:14:56;10.23;;;4.43;;
39524;SDS011;25203;50.754;6.978;2023-06-01T02:16:57;9.50;;;5.10;;
39524;SDS011;25203;50.754;6.978;2023-06-01T02:18:57;5.93;;;4.22;;
39524;SDS011;25203;50.754;6.978;2023-06-01T02:20:58;8.00;;;4.75;;
39524;SDS011;25203;50.754;6.978;2023-06-01T02:22:59;8.52;;;4.13;;
39524;SDS011;25203;50.754;6.978;2023-06-01T02:25:00;11.57;;;5.30;;
39524;SDS011;25203;50.754;6.978;2023-06-01T02:27:00;6.78;;;4.85;;
39524;SDS011;25203;50.754;6.978;2023-06-01T02:29:02;7.72;;;5.13;;
39524;SDS011;25203;50.754;6.978;2023-06-01T02:31:05;5.38;;;4.25;;
39524;SDS011;25203;50.754;6.978;2023-06-01T02:33:05;6.82;;;5.13;;
39524;SDS011;25203;50.754;6.978;2023-06-01T02:35:06;11.35;;;4.90;;
39524;SDS011;25203;50.754;6.978;2023-06-01T02:37:07;10.38;;;5.57;;
39524;SDS011;25203;50.754;6.978;2023-06-01T02:39:08;11.75;;;6.43;;
39524;SDS011;25203;50.754;6.978;2023-06-01T02:41:08;5.68;;;4.90;;
39524;SDS011;25203;50.754;6.978;2023-06-01T02:43:09;8.30;;;4.95;;
39524;SDS011;25203;50.754;6.978;2023-06-01T02:45:09;8.13;;;4.80;;
39524;SDS011;25203;50.754;6.978;2023-06-01T02:47:10;10.45;;;4.32;;
39524;SDS011;25203;50.754;6.978;2023-06-01T02:49:11;8.13;;;4.72;;
39524;SDS011;25203;50.754;6.978;2023-06-01T02:51:11;8.90;;;4.78;;
39524;SDS011;25203;50.754;6.978;2023-06-01T02:53:12;7.93;;;5.15;;
39524;SDS011;25203;50.754;6.978;2023-06-01T02:55:13;6.40;;;5.28;;
39524;SDS011;25203;50.754;6.978;2023-06-01T02:57:13;7.75;;;5.13;;
39524;SDS011;25203;50.754;6.978;2023-06-01T02:59:14;11.48;;;6.45;;
39524;SDS011;25203;50.754;6.978;2023-06-01T03:01:15;11.23;;;5.45;;
39524;SDS011;25203;50.754;6.978;2023-06-01T03:03:16;13.30;;;6.07;;
39524;SDS011;25203;50.754;6.978;2023-06-01T03:05:17;8.18;;;5.53;;
39524;SDS011;25203;50.754;6.978;2023-06-01T03:07:18;12.15;;;5.55;;
39524;SDS011;25203;50.754;6.978;2023-06-01T03:09:18;10.70;;;5.63;;
39524;SDS011;25203;50.754;6.978;2023-06-01T03:11:19;8.93;;;5.43;;
39524;SDS011;25203;50.754;6.978;2023-06-01T03:13:19;8.73;;;5.15;;
39524;SDS011;25203;50.754;6.978;2023-06-01T03:15:20;12.65;;;5.43;;
39524;SDS011;25203;50.754;6.978;2023-06-01T03:17:21;9.75;;;6.38;;
39524;SDS011;25203;50.754;6.978;2023-06-01T03:19:21;8.70;;;5.75;;
39524;SDS011;25203;50.754;6.978;2023-06-01T03:21:22;13.10;;;6.07;;
39524;SDS011;25203;50.754;6.978;2023-06-01T03:23:24;11.57;;;6.43;;
39524;SDS011;25203;50.754;6.978;2023-06-01T03:25:25;7.18;;;6.07;;
39524;SDS011;25203;50.754;6.978;2023-06-01T03:27:25;8.98;;;6.70;;
39524;SDS011;25203;50.754;6.978;2023-06-01T03:29:26;7.07;;;6.28;;
39524;SDS011;25203;50.754;6.978;2023-06-01T03:31:27;11.25;;;6.47;;
39524;SDS011;25203;50.754;6.978;2023-06-01T03:33:28;10.57;;;6.55;;
39524;SDS011;25203;50.754;6.978;2023-06-01T03:35:28;12.13;;;7.03;;
39524;SDS011;25203;50.754;6.978;2023-06-01T03:37:29;11.95;;;7.57;;
39524;SDS011;25203;50.754;6.978;2023-06-01T03:39:30;11.30;;;7.05;;
39524;SDS011;25203;50.754;6.978;2023-06-01T03:41:34;15.80;;;8.10;;
39524;SDS011;25203;50.754;6.978;2023-06-01T03:43:35;12.07;;;6.60;;
39524;SDS011;25203;50.754;6.978;2023-06-01T03:45:35;10.63;;;6.70;;
39524;SDS011;25203;50.754;6.978;2023-06-01T03:47:36;12.00;;;7.72;;
39524;SDS011;25203;50.754;6.978;2023-06-01T03:49:37;10.02;;;7.30;;
39524;SDS011;25203;50.754;6.978;2023-06-01T03:51:37;12.25;;;7.60;;
39524;SDS011;25203;50.754;6.978;2023-06-01T03:53:38;11.63;;;7.15;;
39524;SDS011;25203;50.754;6.978;2023-06-01T03:55:39;10.15;;;6.97;;
39524;SDS011;25203;50.754;6.978;2023-06-01T03:57:39;11.45;;;7.53;;
39524;SDS011;25203;50.754;6.978;2023-06-01T03:59:40;17.35;;;7.43;;
39524;SDS011;25203;50.754;6.978;2023-06-01T04:01:41;11.00;;;7.53;;
39524;SDS011;25203;50.754;6.978;2023-06-01T04:03:43;12.75;;;7.18;;
39524;SDS011;25203;50.754;6.978;2023-06-01T04:05:44;10.80;;;7.20;;
39524;SDS011;25203;50.754;6.978;2023-06-01T04:07:50;13.07;;;7.07;;
39524;SDS011;25203;50.754;6.978;2023-06-01T04:09:52;12.93;;;7.05;;
39524;SDS011;25203;50.754;6.978;2023-06-01T04:11:53;13.85;;;7.88;;
39524;SDS011;25203;50.754;6.978;2023-06-01T04:13:53;16.02;;;7.18;;
39524;SDS011;25203;50.754;6.978;2023-06-01T04:15:54;14.32;;;8.13;;
39524;SDS011;25203;50.754;6.978;2023-06-01T04:17:55;14.63;;;7.50;;
39524;SDS011;25203;50.754;6.978;2023-06-01T04:19:55;16.30;;;8.27;;
39524;SDS011;25203;50.754;6.978;2023-06-01T04:21:56;15.63;;;9.02;;
39524;SDS011;25203;50.754;6.978;2023-06-01T04:23:57;18.83;;;8.32;;
39524;SDS011;25203;50.754;6.978;2023-06-01T04:25:57;10.63;;;7.45;;
39524;SDS011;25203;50.754;6.978;2023-06-01T04:27:59;13.57;;;7.32;;
39524;SDS011;25203;50.754;6.978;2023-06-01T04:30:00;19.13;;;7.60;;
39524;SDS011;25203;50.754;6.978;2023-06-01T04:32:01;14.57;;;8.38;;
39524;SDS011;25203;50.754;6.978;2023-06-01T04:34:01;11.40;;;7.47;;
39524;SDS011;25203;50.754;6.978;2023-06-01T04:36:02;12.98;;;7.35;;
39524;SDS011;25203;50.754;6.978;2023-06-01T04:38:02;15.35;;;7.43;;
39524;SDS011;25203;50.754;6.978;2023-06-01T04:40:03;17.02;;;8.75;;
39524;SDS011;25203;50.754;6.978;2023-06-01T04:42:09;10.95;;;7.60;;
39524;SDS011;25203;50.754;6.978;2023-06-01T04:44:13;14.95;;;8.10;;
39524;SDS011;25203;50.754;6.978;2023-06-01T04:46:15;14.13;;;8.73;;
39524;SDS011;25203;50.754;6.978;2023-06-01T04:48:16;15.05;;;7.97;;
39524;SDS011;25203;50.754;6.978;2023-06-01T04:50:16;14.40;;;7.45;;
39524;SDS011;25203;50.754;6.978;2023-06-01T04:52:17;16.05;;;7.75;;
39524;SDS011;25203;50.754;6.978;2023-06-01T04:54:18;14.98;;;8.23;;
39524;SDS011;25203;50.754;6.978;2023-06-01T04:56:20;14.05;;;7.88;;
39524;SDS011;25203;50.754;6.978;2023-06-01T04:58:26;13.25;;;7.47;;
39524;SDS011;25203;50.754;6.978;2023-06-01T05:00:27;11.38;;;7.07;;
39524;SDS011;25203;50.754;6.978;2023-06-01T05:02:27;14.38;;;8.45;;
39524;SDS011;25203;50.754;6.978;2023-06-01T05:04:28;13.32;;;7.85;;
39524;SDS011;25203;50.754;6.978;2023-06-01T05:06:29;13.20;;;7.88;;
39524;SDS011;25203;50.754;6.978;2023-06-01T05:08:29;11.93;;;7.10;;
39524;SDS011;25203;50.754;6.978;2023-06-01T05:10:31;10.55;;;7.47;;
39524;SDS011;25203;50.754;6.978;2023-06-01T05:12:33;12.27;;;7.32;;
39524;SDS011;25203;50.754;6.978;2023-06-01T05:14:34;15.60;;;8.15;;
39524;SDS011;25203;50.754;6.978;2023-06-01T05:16:35;20.50;;;10.82;;
39524;SDS011;25203;50.754;6.978;2023-06-01T05:18:35;20.20;;;11.68;;
39524;SDS011;25203;50.754;6.978;2023-06-01T05:20:36;15.35;;;11.07;;
39524;SDS011;25203;50.754;6.978;2023-06-01T05:22:37;20.95;;;10.82;;
39524;SDS011;25203;50.754;6.978;2023-06-01T05:24:38;20.85;;;12.32;;
39524;SDS011;25203;50.754;6.978;2023-06-01T05:26:38;15.95;;;11.65;;
39524;SDS011;25203;50.754;6.978;2023-06-01T05:28:40;17.15;;;11.98;;
39524;SDS011;25203;50.754;6.978;2023-06-01T05:30:40;12.80;;;10.45;;
39524;SDS011;25203;50.754;6.978;2023-06-01T05:32:41;22.80;;;12.60;;
39524;SDS011;25203;50.754;6.978;2023-06-01T05:34:42;18.52;;;12.30;;
39524;SDS011;25203;50.754;6.978;2023-06-01T05:36:43;22.00;;;12.70;;
39524;SDS011;25203;50.754;6.978;2023-06-01T05:38:43;24.27;;;12.85;;
39524;SDS011;25203;50.754;6.978;2023-06-01T05:40:44;21.95;;;12.82;;
39524;SDS011;25203;50.754;6.978;2023-06-01T05:42:45;16.55;;;11.68;;
39524;SDS011;25203;50.754;6.978;2023-06-01T05:44:45;20.95;;;12.25;;
39524;SDS011;25203;50.754;6.978;2023-06-01T05:46:46;21.58;;;12.65;;
39524;SDS011;25203;50.754;6.978;2023-06-01T05:48:47;18.70;;;13.02;;
39524;SDS011;25203;50.754;6.978;2023-06-01T05:50:48;20.23;;;14.15;;
39524;SDS011;25203;50.754;6.978;2023-06-01T05:52:48;24.33;;;13.30;;
39524;SDS011;25203;50.754;6.978;2023-06-01T05:54:49;19.20;;;13.77;;
39524;SDS011;25203;50.754;6.978;2023-06-01T05:56:50;23.02;;;13.43;;
39524;SDS011;25203;50.754;6.978;2023-06-01T05:58:51;19.40;;;12.93;;
39524;SDS011;25203;50.754;6.978;2023-06-01T06:00:53;19.80;;;14.30;;
39524;SDS011;25203;50.754;6.978;2023-06-01T06:02:53;22.88;;;12.88;;
39524;SDS011;25203;50.754;6.978;2023-06-01T06:04:54;18.77;;;14.02;;
39524;SDS011;25203;50.754;6.978;2023-06-01T06:06:55;24.40;;;14.77;;
39524;SDS011;25203;50.754;6.978;2023-06-01T06:08:55;22.90;;;13.77;;
39524;SDS011;25203;50.754;6.978;2023-06-01T06:10:56;26.48;;;14.32;;
39524;SDS011;25203;50.754;6.978;2023-06-01T06:12:56;20.35;;;13.10;;
39524;SDS011;25203;50.754;6.978;2023-06-01T06:14:57;19.60;;;13.95;;
39524;SDS011;25203;50.754;6.978;2023-06-01T06:16:58;25.60;;;13.88;;
39524;SDS011;25203;50.754;6.978;2023-06-01T06:18:58;19.27;;;13.68;;
39524;SDS011;25203;50.754;6.978;2023-06-01T06:20:59;20.50;;;12.60;;
39524;SDS011;25203;50.754;6.978;2023-06-01T06:23:00;19.23;;;13.65;;
39524;SDS011;25203;50.754;6.978;2023-06-01T06:25:01;23.35;;;14.90;;
39524;SDS011;25203;50.754;6.978;2023-06-01T06:27:02;19.40;;;14.07;;
39524;SDS011;25203;50.754;6.978;2023-06-01T06:29:03;22.80;;;14.45;;
39524;SDS011;25203;50.754;6.978;2023-06-01T06:31:03;25.02;;;14.40;;
39524;SDS011;25203;50.754;6.978;2023-06-01T06:33:04;18.40;;;13.18;;
39524;SDS011;25203;50.754;6.978;2023-06-01T06:35:04;20.48;;;14.45;;
39524;SDS011;25203;50.754;6.978;2023-06-01T06:37:05;20.20;;;14.73;;
39524;SDS011;25203;50.754;6.978;2023-06-01T06:39:06;26.38;;;15.48;;
39524;SDS011;25203;50.754;6.978;2023-06-01T06:41:07;18.88;;;14.20;;
39524;SDS011;25203;50.754;6.978;2023-06-01T06:43:07;24.50;;;14.52;;
39524;SDS011;25203;50.754;6.978;2023-06-01T06:45:08;28.27;;;15.88;;
39524;SDS011;25203;50.754;6.978;2023-06-01T06:47:09;20.20;;;15.32;;
39524;SDS011;25203;50.754;6.978;2023-06-01T06:49:14;20.35;;;15.25;;
39524;SDS011;25203;50.754;6.978;2023-06-01T06:51:15;26.90;;;14.95;;
39524;SDS011;25203;50.754;6.978;2023-06-01T06:53:16;22.67;;;15.38;;
39524;SDS011;25203;50.754;6.978;2023-06-01T06:55:18;25.02;;;15.80;;
39524;SDS011;25203;50.754;6.978;2023-06-01T06:57:18;27.05;;;17.60;;
39524;SDS011;25203;50.754;6.978;2023-06-01T06:59:19;24.95;;;18.35;;
39524;SDS011;25203;50.754;6.978;2023-06-01T07:01:19;25.00;;;17.60;;
39524;SDS011;25203;50.754;6.978;2023-06-01T07:03:20;21.48;;;17.13;;
39524;SDS011;25203;50.754;6.978;2023-06-01T07:05:21;26.30;;;17.60;;
39524;SDS011;25203;50.754;6.978;2023-06-01T07:07:21;21.35;;;17.60;;
39524;SDS011;25203;50.754;6.978;2023-06-01T07:09:22;25.98;;;18.67;;
39524;SDS011;25203;50.754;6.978;2023-06-01T07:11:23;25.25;;;18.92;;
39524;SDS011;25203;50.754;6.978;2023-06-01T07:13:23;23.30;;;19.35;;
39524;SDS011;25203;50.754;6.978;2023-06-01T07:15:24;26.60;;;19.08;;
39524;SDS011;25203;50.754;6.978;2023-06-01T07:17:25;27.08;;;20.45;;
39524;SDS011;25203;50.754;6.978;2023-06-01T07:19:26;28.00;;;20.25;;
39524;SDS011;25203;50.754;6.978;2023-06-01T07:21:32;31.10;;;21.40;;
39524;SDS011;25203;50.754;6.978;2023-06-01T07:23:33;26.00;;;18.00;;
39524;SDS011;25203;50.754;6.978;2023-06-01T07:25:34;30.33;;;20.23;;
39524;SDS011;25203;50.754;6.978;2023-06-01T07:27:34;29.92;;;20.77;;
39524;SDS011;25203;50.754;6.978;2023-06-01T07:29:36;37.67;;;21.75;;
39524;SDS011;25203;50.754;6.978;2023-06-01T07:31:36;30.30;;;22.33;;
39524;SDS011;25203;50.754;6.978;2023-06-01T07:33:38;26.75;;;21.60;;
39524;SDS011;25203;50.754;6.978;2023-06-01T07:35:40;34.58;;;23.77;;
39524;SDS011;25203;50.754;6.978;2023-06-01T07:37:41;27.48;;;22.55;;
39524;SDS011;25203;50.754;6.978;2023-06-01T07:39:41;28.80;;;24.05;;
39524;SDS011;25203;50.754;6.978;2023-06-01T07:41:45;28.77;;;22.45;;
39524;SDS011;25203;50.754;6.978;2023-06-01T07:43:46;31.50;;;22.02;;
39524;SDS011;25203;50.754;6.978;2023-06-01T07:45:46;24.58;;;20.75;;
39524;SDS011;25203;50.754;6.978;2023-06-01T07:47:47;29.13;;;21.33;;
39524;SDS011;25203;50.754;6.978;2023-06-01T07:49:47;29.98;;;24.23;;
39524;SDS011;25203;50.754;6.978;2023-06-01T07:51:48;30.58;;;23.63;;
39524;SDS011;25203;50.754;6.978;2023-06-01T07:53:51;27.83;;;22.42;;
39524;SDS011;25203;50.754;6.978;2023-06-01T07:55:55;23.85;;;21.25;;
39524;SDS011;25203;50.754;6.978;2023-06-01T07:57:56;29.88;;;23.20;;
39524;SDS011;25203;50.754;6.978;2023-06-01T07:59:56;27.60;;;22.95;;
39524;SDS011;25203;50.754;6.978;2023-06-01T08:01:57;26.55;;;22.27;;
39524;SDS011;25203;50.754;6.978;2023-06-01T08:03:59;27.27;;;22.45;;
39524;SDS011;25203;50.754;6.978;2023-06-01T08:06:01;34.33;;;21.75;;
39524;SDS011;25203;50.754;6.978;2023-06-01T08:08:04;28.83;;;23.25;;
39524;SDS011;25203;50.754;6.978;2023-06-01T08:10:05;28.83;;;21.80;;
39524;SDS011;25203;50.754;6.978;2023-06-01T08:12:07;30.45;;;23.33;;
39524;SDS011;25203;50.754;6.978;2023-06-01T08:14:08;25.17;;;22.25;;
39524;SDS011;25203;50.754;6.978;2023-06-01T08:16:09;25.60;;;22.20;;
39524;SDS011;25203;50.754;6.978;2023-06-01T08:18:10;27.35;;;22.00;;
39524;SDS011;25203;50.754;6.978;2023-06-01T08:20:10;28.00;;;21.38;;
39524;SDS011;25203;50.754;6.978;2023-06-01T08:22:12;22.35;;;18.77;;
39524;SDS011;25203;50.754;6.978;2023-06-01T08:24:12;30.38;;;21.10;;
39524;SDS011;25203;50.754;6.978;2023-06-01T08:26:13;21.80;;;19.50;;
39524;SDS011;25203;50.754;6.978;2023-06-01T08:28:14;20.42;;;18.00;;
39524;SDS011;25203;50.754;6.978;2023-06-01T08:30:14;20.40;;;18.33;;
39524;SDS011;25203;50.754;6.978;2023-06-01T08:32:16;20.38;;;17.70;;
39524;SDS011;25203;50.754;6.978;2023-06-01T08:34:17;20.08;;;16.90;;
39524;SDS011;25203;50.754;6.978;2023-06-01T08:36:20;19.48;;;17.52;;
39524;SDS011;25203;50.754;6.978;2023-06-01T08:38:21;23.08;;;18.50;;
39524;SDS011;25203;50.754;6.978;2023-06-01T08:40:22;24.17;;;19.77;;
39524;SDS011;25203;50.754;6.978;2023-06-01T08:44:33;19.92;;;17.75;;
39524;SDS011;25203;50.754;6.978;2023-06-01T08:46:37;22.70;;;18.80;;
39524;SDS011;25203;50.754;6.978;2023-06-01T08:48:41;22.13;;;18.83;;
39524;SDS011;25203;50.754;6.978;2023-06-01T08:50:50;24.58;;;19.38;;
39524;SDS011;25203;50.754;6.978;2023-06-01T08:52:52;19.08;;;15.13;;
39524;SDS011;25203;50.754;6.978;2023-06-01T08:54:55;20.27;;;18.15;;
39524;SDS011;25203;50.754;6.978;2023-06-01T08:56:59;19.63;;;17.02;;
39524;SDS011;25203;50.754;6.978;2023-06-01T08:59:02;20.92;;;17.83;;
39524;SDS011;25203;50.754;6.978;2023-06-01T09:01:03;24.55;;;19.00;;
39524;SDS011;25203;50.754;6.978;2023-06-01T09:03:03;23.20;;;20.15;;
39524;SDS011;25203;50.754;6.978;2023-06-01T09:05:04;20.08;;;17.85;;
39524;SDS011;25203;50.754;6.978;2023-06-01T09:07:05;19.58;;;16.08;;
39524;SDS011;25203;50.754;6.978;2023-06-01T09:09:06;20.27;;;18.10;;
39524;SDS011;25203;50.754;6.978;2023-06-01T09:11:11;18.60;;;15.65;;
39524;SDS011;25203;50.754;6.978;2023-06-01T09:13:11;19.88;;;17.73;;
39524;SDS011;25203;50.754;6.978;2023-06-01T09:15:13;19.52;;;17.42;;
39524;SDS011;25203;50.754;6.978;2023-06-01T09:17:21;20.08;;;18.08;;
39524;SDS011;25203;50.754;6.978;2023-06-01T09:19:22;21.40;;;19.27;;
39524;SDS011;25203;50.754;6.978;2023-06-01T09:21:23;19.00;;;17.17;;
39524;SDS011;25203;50.754;6.978;2023-06-01T09:23:24;20.20;;;17.95;;
39524;SDS011;25203;50.754;6.978;2023-06-01T09:25:29;20.08;;;17.98;;
39524;SDS011;25203;50.754;6.978;2023-06-01T09:27:34;21.63;;;18.77;;
39524;SDS011;25203;50.754;6.978;2023-06-01T09:29:52;22.08;;;19.75;;
39524;SDS011;25203;50.754;6.978;2023-06-01T09:31:54;22.58;;;18.75;;
39524;SDS011;25203;50.754;6.978;2023-06-01T09:34:04;19.63;;;17.60;;
39524;SDS011;25203;50.754;6.978;2023-06-01T09:36:05;19.33;;;17.08;;
39524;SDS011;25203;50.754;6.978;2023-06-01T09:38:05;19.30;;;17.25;;
39524;SDS011;25203;50.754;6.978;2023-06-01T09:40:24;17.35;;;15.55;;
39524;SDS011;25203;50.754;6.978;2023-06-01T09:42:30;18.17;;;16.35;;
39524;SDS011;25203;50.754;6.978;2023-06-01T09:44:33;20.77;;;17.27;;
39524;SDS011;25203;50.754;6.978;2023-06-01T09:46:45;20.65;;;14.65;;
39524;SDS011;25203;50.754;6.978;2023-06-01T09:48:48;18.77;;;15.52;;
39524;SDS011;25203;50.754;6.978;2023-06-01T09:51:04;19.13;;;14.70;;
39524;SDS011;25203;50.754;6.978;2023-06-01T09:53:19;16.45;;;14.60;;
39524;SDS011;25203;50.754;6.978;2023-06-01T09:55:20;15.23;;;13.15;;
39524;SDS011;25203;50.754;6.978;2023-06-01T09:57:25;14.00;;;12.70;;
39524;SDS011;25203;50.754;6.978;2023-06-01T09:59:26;16.13;;;14.27;;
39524;SDS011;25203;50.754;6.978;2023-06-01T10:01:31;14.88;;;13.38;;
39524;SDS011;25203;50.754;6.978;2023-06-01T10:03:31;16.63;;;14.18;;
39524;SDS011;25203;50.754;6.978;2023-06-01T10:05:33;19.52;;;15.05;;
39524;SDS011;25203;50.754;6.978;2023-06-01T10:07:34;14.48;;;13.07;;
39524;SDS011;25203;50.754;6.978;2023-06-01T10:09:38;15.55;;;12.15;;
39524;SDS011;25203;50.754;6.978;2023-06-01T10:11:42;16.35;;;13.27;;
39524;SDS011;25203;50.754;6.978;2023-06-01T10:13:42;15.88;;;14.07;;
39524;SDS011;25203;50.754;6.978;2023-06-01T10:15:43;15.15;;;13.32;;
39524;SDS011;25203;50.754;6.978;2023-06-01T10:17:44;14.13;;;12.70;;
39524;SDS011;25203;50.754;6.978;2023-06-01T10:19:45;20.60;;;11.93;;
39524;SDS011;25203;50.754;6.978;2023-06-01T10:21:46;15.05;;;13.13;;
39524;SDS011;25203;50.754;6.978;2023-06-01T10:23:47;16.13;;;13.15;;
39524;SDS011;25203;50.754;6.978;2023-06-01T10:25:48;13.55;;;11.52;;
39524;SDS011;25203;50.754;6.978;2023-06-01T10:28:02;13.80;;;10.90;;
39524;SDS011;25203;50.754;6.978;2023-06-01T10:30:08;16.83;;;13.23;;
39524;SDS011;25203;50.754;6.978;2023-06-01T10:41:29;15.35;;;12.15;;
39524;SDS011;25203;50.754;6.978;2023-06-01T10:45:39;12.90;;;11.52;;
39524;SDS011;25203;50.754;6.978;2023-06-01T10:51:47;14.73;;;12.52;;
39524;SDS011;25203;50.754;6.978;2023-06-01T10:53:47;17.15;;;13.40;;
39524;SDS011;25203;50.754;6.978;2023-06-01T10:55:51;18.10;;;14.90;;
39524;SDS011;25203;50.754;6.978;2023-06-01T10:58:23;17.98;;;16.00;;
39524;SDS011;25203;50.754;6.978;2023-06-01T11:00:26;15.70;;;14.18;;
39524;SDS011;25203;50.754;6.978;2023-06-01T11:02:27;15.80;;;11.57;;
39524;SDS011;25203;50.754;6.978;2023-06-01T11:04:36;16.67;;;14.20;;
39524;SDS011;25203;50.754;6.978;2023-06-01T11:06:38;17.08;;;14.70;;
39524;SDS011;25203;50.754;6.978;2023-06-01T11:13:10;16.33;;;14.20;;
39524;SDS011;25203;50.754;6.978;2023-06-01T11:15:11;16.35;;;14.73;;
39524;SDS011;25203;50.754;6.978;2023-06-01T11:17:27;17.20;;;15.48;;
39524;SDS011;25203;50.754;6.978;2023-06-01T11:19:29;16.75;;;14.68;;
39524;SDS011;25203;50.754;6.978;2023-06-01T11:21:31;19.25;;;14.93;;
39524;SDS011;25203;50.754;6.978;2023-06-01T11:23:35;23.60;;;15.50;;
39524;SDS011;25203;50.754;6.978;2023-06-01T11:25:38;17.60;;;15.82;;
39524;SDS011;25203;50.754;6.978;2023-06-01T11:27:42;16.73;;;14.82;;
39524;SDS011;25203;50.754;6.978;2023-06-01T11:29:46;21.83;;;17.10;;
39524;SDS011;25203;50.754;6.978;2023-06-01T11:31:49;18.35;;;16.35;;
39524;SDS011;25203;50.754;6.978;2023-06-01T11:33:54;17.98;;;16.08;;
39524;SDS011;25203;50.754;6.978;2023-06-01T11:35:58;22.08;;;18.55;;
39524;SDS011;25203;50.754;6.978;2023-06-01T11:37:59;21.58;;;19.60;;
39524;SDS011;25203;50.754;6.978;2023-06-01T11:40:06;21.85;;;19.52;;
39524;SDS011;25203;50.754;6.978;2023-06-01T11:42:19;22.15;;;18.80;;
39524;SDS011;25203;50.754;6.978;2023-06-01T11:44:21;23.42;;;20.48;;
39524;SDS011;25203;50.754;6.978;2023-06-01T11:46:22;25.45;;;20.58;;
39524;SDS011;25203;50.754;6.978;2023-06-01T11:48:23;26.58;;;23.75;;
39524;SDS011;25203;50.754;6.978;2023-06-01T11:50:24;26.73;;;24.13;;
39524;SDS011;25203;50.754;6.978;2023-06-01T11:52:27;25.02;;;22.67;;
39524;SDS011;25203;50.754;6.978;2023-06-01T11:54:29;26.02;;;23.10;;
39524;SDS011;25203;50.754;6.978;2023-06-01T11:56:30;25.55;;;22.95;;
39524;SDS011;25203;50.754;6.978;2023-06-01T11:58:32;26.17;;;23.55;;
39524;SDS011;25203;50.754;6.978;2023-06-01T12:00:32;26.33;;;23.60;;
39524;SDS011;25203;50.754;6.978;2023-06-01T12:02:37;32.00;;;24.77;;
39524;SDS011;25203;50.754;6.978;2023-06-01T12:04:38;25.08;;;22.52;;
39524;SDS011;25203;50.754;6.978;2023-06-01T12:06:39;26.88;;;24.20;;
39524;SDS011;25203;50.754;6.978;2023-06-01T12:08:40;26.88;;;24.27;;
39524;SDS011;25203;50.754;6.978;2023-06-01T12:10:42;29.73;;;23.90;;
39524;SDS011;25203;50.754;6.978;2023-06-01T12:12:44;27.27;;;24.45;;
39524;SDS011;25203;50.754;6.978;2023-06-01T12:14:45;26.45;;;23.88;;
39524;SDS011;25203;50.754;6.978;2023-06-01T12:16:53;26.05;;;23.40;;
39524;SDS011;25203;50.754;6.978;2023-06-01T12:18:54;27.52;;;24.15;;
39524;SDS011;25203;50.754;6.978;2023-06-01T12:20:54;25.58;;;22.92;;
39524;SDS011;25203;50.754;6.978;2023-06-01T12:22:59;26.70;;;23.83;;
39524;SDS011;25203;50.754;6.978;2023-06-01T12:25:06;24.88;;;22.45;;
39524;SDS011;25203;50.754;6.978;2023-06-01T12:27:17;26.05;;;22.63;;
39524;SDS011;25203;50.754;6.978;2023-06-01T12:29:35;25.83;;;22.83;;